sensor_id;sensor_type;location;lat;lon;timestamp;P1;durP1;ratioP1;P2;durP2;ratioP2
37657;SDS011;23500;53.268;8.308;2022-08-01T00:00:24;3.30;;;3.00;;
37657;SDS011;23500;53.268;8.308;2022-08-01T00:02:50;3.10;;;2.90;;
37657;SDS011;23500;53.268;8.308;2022-08-01T00:05:15;3.20;;;3.00;;
37657;SDS011;23500;53.268;8.308;2022-08-01T00:07:41;3.35;;;3.10;;
37657;SDS011;23500;53.268;8.308;2022-08-01T00:10:08;3.03;;;2.83;;
37657;SDS011;23500;53.268;8.308;2022-08-01T00:12:37;3.25;;;3.05;;
37657;SDS011;23500;53.268;8.308;2022-08-01T00:15:04;3.22;;;3.00;;
37657;SDS011;23500;53.268;8.308;2022-08-01T00:17:31;3.08;;;2.88;;
37657;SDS011;23500;53.268;8.308;2022-08-01T00:19:57;3.20;;;3.00;;
37657;SDS011;23500;53.268;8.308;2022-08-01T00:22:22;3.55;;;3.25;;
37657;SDS011;23500;53.268;8.308;2022-08-01T00:24:48;3.45;;;3.15;;
37657;SDS011;23500;53.268;8.308;2022-08-01T00:27:13;3.60;;;3.10;;
37657;SDS011;23500;53.268;8.308;2022-08-01T00:29:39;3.00;;;2.80;;
37657;SDS011;23500;53.268;8.308;2022-08-01T00:32:05;3.03;;;2.83;;
37657;SDS011;23500;53.268;8.308;2022-08-01T00:34:31;3.45;;;3.15;;
37657;SDS011;23500;53.268;8.308;2022-08-01T00:36:56;3.47;;;3.28;;
37657;SDS011;23500;53.268;8.308;2022-08-01T00:39:22;3.22;;;2.90;;
37657;SDS011;23500;53.268;8.308;2022-08-01T00:41:47;3.40;;;3.10;;
37657;SDS011;23500;53.268;8.308;2022-08-01T00:44:13;3.10;;;2.90;;
37657;SDS011;23500;53.268;8.308;2022-08-01T00:46:39;3.20;;;3.00;;
37657;SDS011;23500;53.268;8.308;2022-08-01T00:49:05;3.35;;;3.15;;
37657;SDS011;23500;53.268;8.308;2022-08-01T00:51:30;3.17;;;2.88;;
37657;SDS011;23500;53.268;8.308;2022-08-01T00:53:56;3.28;;;3.08;;
37657;SDS011;23500;53.268;8.308;2022-08-01T00:56:23;4.10;;;3.30;;
37657;SDS011;23500;53.268;8.308;2022-08-01T00:58:50;3.40;;;3.10;;
37657;SDS011;23500;53.268;8.308;2022-08-01T01:01:16;3.15;;;2.95;;
37657;SDS011;23500;53.268;8.308;2022-08-01T01:03:43;3.20;;;2.90;;
37657;SDS011;23500;53.268;8.308;2022-08-01T01:06:13;3.13;;;2.90;;
37657;SDS011;23500;53.268;8.308;2022-08-01T01:11:37;3.50;;;3.20;;
37657;SDS011;23500;53.268;8.308;2022-08-01T01:14:23;2.90;;;2.70;;
37657;SDS011;23500;53.268;8.308;2022-08-01T01:16:57;3.20;;;3.00;;
37657;SDS011;23500;53.268;8.308;2022-08-01T01:19:26;3.08;;;2.88;;
37657;SDS011;23500;53.268;8.308;2022-08-01T01:22:01;2.88;;;2.63;;
37657;SDS011;23500;53.268;8.308;2022-08-01T01:28:02;2.80;;;2.60;;
37657;SDS011;23500;53.268;8.308;2022-08-01T01:30:39;3.08;;;2.88;;
37657;SDS011;23500;53.268;8.308;2022-08-01T01:33:08;3.15;;;2.90;;
37657;SDS011;23500;53.268;8.308;2022-08-01T01:35:36;3.25;;;3.00;;
37657;SDS011;23500;53.268;8.308;2022-08-01T01:38:17;3.05;;;2.85;;
37657;SDS011;23500;53.268;8.308;2022-08-01T01:40:46;3.30;;;3.00;;
37657;SDS011;23500;53.268;8.308;2022-08-01T01:43:14;3.10;;;2.90;;
37657;SDS011;23500;53.268;8.308;2022-08-01T01:45:40;3.95;;;3.15;;
37657;SDS011;23500;53.268;8.308;2022-08-01T01:48:09;3.05;;;2.85;;
37657;SDS011;23500;53.268;8.308;2022-08-01T01:50:37;2.95;;;2.75;;
37657;SDS011;23500;53.268;8.308;2022-08-01T01:53:04;2.80;;;2.60;;
37657;SDS011;23500;53.268;8.308;2022-08-01T01:55:31;3.30;;;3.10;;
37657;SDS011;23500;53.268;8.308;2022-08-01T01:57:59;3.35;;;3.00;;
37657;SDS011;23500;53.268;8.308;2022-08-01T02:00:25;3.00;;;2.80;;
37657;SDS011;23500;53.268;8.308;2022-08-01T02:02:54;2.90;;;2.70;;
37657;SDS011;23500;53.268;8.308;2022-08-01T02:05:22;2.80;;;2.60;;
37657;SDS011;23500;53.268;8.308;2022-08-01T02:07:48;3.15;;;2.95;;
37657;SDS011;23500;53.268;8.308;2022-08-01T02:10:18;2.88;;;2.67;;
37657;SDS011;23500;53.268;8.308;2022-08-01T02:12:44;3.03;;;2.83;;
37657;SDS011;23500;53.268;8.308;2022-08-01T02:15:12;3.20;;;2.90;;
37657;SDS011;23500;53.268;8.308;2022-08-01T02:17:43;2.97;;;2.78;;
37657;SDS011;23500;53.268;8.308;2022-08-01T02:20:12;2.90;;;2.70;;
37657;SDS011;23500;53.268;8.308;2022-08-01T02:22:51;2.75;;;2.55;;
37657;SDS011;23500;53.268;8.308;2022-08-01T02:25:29;2.78;;;2.58;;
37657;SDS011;23500;53.268;8.308;2022-08-01T02:28:00;2.92;;;2.72;;
37657;SDS011;23500;53.268;8.308;2022-08-01T02:30:38;2.88;;;2.67;;
37657;SDS011;23500;53.268;8.308;2022-08-01T02:35:37;2.70;;;2.50;;
37657;SDS011;23500;53.268;8.308;2022-08-01T02:38:05;2.72;;;2.53;;
37657;SDS011;23500;53.268;8.308;2022-08-01T02:40:34;2.72;;;2.53;;
37657;SDS011;23500;53.268;8.308;2022-08-01T02:43:05;2.83;;;2.63;;
37657;SDS011;23500;53.268;8.308;2022-08-01T02:45:33;2.80;;;2.60;;
37657;SDS011;23500;53.268;8.308;2022-08-01T02:48:01;3.17;;;2.60;;
37657;SDS011;23500;53.268;8.308;2022-08-01T02:50:42;2.83;;;2.63;;
37657;SDS011;23500;53.268;8.308;2022-08-01T02:53:10;2.90;;;2.70;;
37657;SDS011;23500;53.268;8.308;2022-08-01T02:55:38;2.83;;;2.50;;
37657;SDS011;23500;53.268;8.308;2022-08-01T02:58:06;2.90;;;2.33;;
37657;SDS011;23500;53.268;8.308;2022-08-01T03:00:33;2.67;;;2.47;;
37657;SDS011;23500;53.268;8.308;2022-08-01T03:03:00;2.90;;;2.70;;
37657;SDS011;23500;53.268;8.308;2022-08-01T03:05:28;2.47;;;2.28;;
37657;SDS011;23500;53.268;8.308;2022-08-01T03:07:57;2.83;;;2.63;;
37657;SDS011;23500;53.268;8.308;2022-08-01T03:10:24;2.63;;;2.42;;
37657;SDS011;23500;53.268;8.308;2022-08-01T03:12:51;2.47;;;2.33;;
37657;SDS011;23500;53.268;8.308;2022-08-01T03:15:17;3.00;;;2.80;;
37657;SDS011;23500;53.268;8.308;2022-08-01T03:17:44;2.40;;;2.20;;
37657;SDS011;23500;53.268;8.308;2022-08-01T03:20:12;2.65;;;2.45;;
37657;SDS011;23500;53.268;8.308;2022-08-01T03:22:40;2.63;;;2.42;;
37657;SDS011;23500;53.268;8.308;2022-08-01T03:25:08;2.78;;;2.58;;
37657;SDS011;23500;53.268;8.308;2022-08-01T03:27:37;2.67;;;2.47;;
37657;SDS011;23500;53.268;8.308;2022-08-01T03:30:06;2.55;;;2.35;;
37657;SDS011;23500;53.268;8.308;2022-08-01T03:32:33;2.33;;;2.20;;
37657;SDS011;23500;53.268;8.308;2022-08-01T03:34:59;2.65;;;2.45;;
37657;SDS011;23500;53.268;8.308;2022-08-01T03:37:38;2.40;;;2.20;;
37657;SDS011;23500;53.268;8.308;2022-08-01T03:40:09;2.40;;;2.20;;
37657;SDS011;23500;53.268;8.308;2022-08-01T03:42:44;2.30;;;2.20;;
37657;SDS011;23500;53.268;8.308;2022-08-01T03:45:19;2.53;;;2.33;;
37657;SDS011;23500;53.268;8.308;2022-08-01T03:47:52;2.83;;;2.63;;
37657;SDS011;23500;53.268;8.308;2022-08-01T03:50:24;2.42;;;2.22;;
37657;SDS011;23500;53.268;8.308;2022-08-01T03:52:50;2.50;;;2.15;;
37657;SDS011;23500;53.268;8.308;2022-08-01T03:55:18;3.50;;;2.28;;
37657;SDS011;23500;53.268;8.308;2022-08-01T03:57:45;2.22;;;2.13;;
37657;SDS011;23500;53.268;8.308;2022-08-01T04:00:12;2.17;;;1.98;;
37657;SDS011;23500;53.268;8.308;2022-08-01T04:02:43;2.50;;;2.30;;
37657;SDS011;23500;53.268;8.308;2022-08-01T04:05:14;2.53;;;2.33;;
37657;SDS011;23500;53.268;8.308;2022-08-01T04:07:46;2.88;;;2.08;;
37657;SDS011;23500;53.268;8.308;2022-08-01T04:10:20;2.20;;;2.10;;
37657;SDS011;23500;53.268;8.308;2022-08-01T04:12:45;2.45;;;1.92;;
37657;SDS011;23500;53.268;8.308;2022-08-01T04:15:11;2.47;;;2.28;;
37657;SDS011;23500;53.268;8.308;2022-08-01T04:17:37;2.08;;;1.98;;
37657;SDS011;23500;53.268;8.308;2022-08-01T04:20:02;2.28;;;2.17;;
37657;SDS011;23500;53.268;8.308;2022-08-01T04:22:28;2.78;;;2.00;;
37657;SDS011;23500;53.268;8.308;2022-08-01T04:24:55;2.55;;;2.17;;
37657;SDS011;23500;53.268;8.308;2022-08-01T04:27:27;2.83;;;2.40;;
37657;SDS011;23500;53.268;8.308;2022-08-01T04:29:56;2.30;;;2.17;;
37657;SDS011;23500;53.268;8.308;2022-08-01T04:32:23;2.83;;;2.30;;
37657;SDS011;23500;53.268;8.308;2022-08-01T04:34:52;2.17;;;1.98;;
37657;SDS011;23500;53.268;8.308;2022-08-01T04:37:22;2.85;;;2.22;;
37657;SDS011;23500;53.268;8.308;2022-08-01T04:39:48;2.13;;;1.92;;
37657;SDS011;23500;53.268;8.308;2022-08-01T04:42:16;2.40;;;2.20;;
37657;SDS011;23500;53.268;8.308;2022-08-01T04:44:42;4.85;;;2.17;;
37657;SDS011;23500;53.268;8.308;2022-08-01T04:47:08;2.42;;;2.28;;
37657;SDS011;23500;53.268;8.308;2022-08-01T04:49:34;2.33;;;2.13;;
37657;SDS011;23500;53.268;8.308;2022-08-01T04:52:01;2.53;;;2.17;;
37657;SDS011;23500;53.268;8.308;2022-08-01T04:54:27;3.38;;;2.15;;
37657;SDS011;23500;53.268;8.308;2022-08-01T04:56:54;2.40;;;2.20;;
37657;SDS011;23500;53.268;8.308;2022-08-01T04:59:25;3.47;;;2.35;;
37657;SDS011;23500;53.268;8.308;2022-08-01T05:02:16;2.60;;;2.22;;
37657;SDS011;23500;53.268;8.308;2022-08-01T05:04:44;4.05;;;2.40;;
37657;SDS011;23500;53.268;8.308;2022-08-01T05:07:11;4.20;;;2.70;;
37657;SDS011;23500;53.268;8.308;2022-08-01T05:09:38;2.38;;;2.17;;
37657;SDS011;23500;53.268;8.308;2022-08-01T05:12:06;3.47;;;2.38;;
37657;SDS011;23500;53.268;8.308;2022-08-01T05:14:33;2.95;;;2.20;;
37657;SDS011;23500;53.268;8.308;2022-08-01T05:16:59;2.42;;;2.03;;
37657;SDS011;23500;53.268;8.308;2022-08-01T05:19:28;3.33;;;2.53;;
37657;SDS011;23500;53.268;8.308;2022-08-01T05:22:02;4.88;;;2.60;;
37657;SDS011;23500;53.268;8.308;2022-08-01T05:24:30;3.78;;;2.53;;
37657;SDS011;23500;53.268;8.308;2022-08-01T05:26:57;3.40;;;2.67;;
37657;SDS011;23500;53.268;8.308;2022-08-01T05:29:23;3.25;;;2.45;;
37657;SDS011;23500;53.268;8.308;2022-08-01T05:31:49;4.72;;;2.50;;
37657;SDS011;23500;53.268;8.308;2022-08-01T05:34:16;3.00;;;2.30;;
37657;SDS011;23500;53.268;8.308;2022-08-01T05:36:42;4.55;;;2.50;;
37657;SDS011;23500;53.268;8.308;2022-08-01T05:39:08;3.88;;;2.58;;
37657;SDS011;23500;53.268;8.308;2022-08-01T05:41:35;4.10;;;2.42;;
37657;SDS011;23500;53.268;8.308;2022-08-01T05:44:02;4.70;;;3.20;;
37657;SDS011;23500;53.268;8.308;2022-08-01T05:46:30;4.25;;;2.63;;
37657;SDS011;23500;53.268;8.308;2022-08-01T05:48:57;3.58;;;2.40;;
37657;SDS011;23500;53.268;8.308;2022-08-01T05:51:23;3.72;;;2.97;;
37657;SDS011;23500;53.268;8.308;2022-08-01T05:53:49;4.30;;;2.67;;
37657;SDS011;23500;53.268;8.308;2022-08-01T05:56:15;7.00;;;2.88;;
37657;SDS011;23500;53.268;8.308;2022-08-01T05:58:41;5.50;;;2.95;;
37657;SDS011;23500;53.268;8.308;2022-08-01T06:01:06;5.65;;;2.90;;
37657;SDS011;23500;53.268;8.308;2022-08-01T06:03:32;3.85;;;2.78;;
37657;SDS011;23500;53.268;8.308;2022-08-01T06:05:58;4.95;;;2.72;;
37657;SDS011;23500;53.268;8.308;2022-08-01T06:08:25;5.07;;;2.78;;
37657;SDS011;23500;53.268;8.308;2022-08-01T06:10:50;4.72;;;2.88;;
37657;SDS011;23500;53.268;8.308;2022-08-01T06:13:16;5.10;;;2.78;;
37657;SDS011;23500;53.268;8.308;2022-08-01T06:15:43;4.20;;;2.55;;
37657;SDS011;23500;53.268;8.308;2022-08-01T06:18:08;5.03;;;2.85;;
37657;SDS011;23500;53.268;8.308;2022-08-01T06:20:34;4.00;;;2.80;;
37657;SDS011;23500;53.268;8.308;2022-08-01T06:23:00;7.25;;;3.25;;
37657;SDS011;23500;53.268;8.308;2022-08-01T06:25:25;4.50;;;3.00;;
37657;SDS011;23500;53.268;8.308;2022-08-01T06:27:52;5.30;;;3.22;;
37657;SDS011;23500;53.268;8.308;2022-08-01T06:30:17;4.07;;;2.60;;
37657;SDS011;23500;53.268;8.308;2022-08-01T06:32:44;6.88;;;3.10;;
37657;SDS011;23500;53.268;8.308;2022-08-01T06:35:10;6.22;;;3.17;;
37657;SDS011;23500;53.268;8.308;2022-08-01T06:37:36;6.68;;;3.10;;
37657;SDS011;23500;53.268;8.308;2022-08-01T06:40:05;8.23;;;3.30;;
37657;SDS011;23500;53.268;8.308;2022-08-01T06:42:32;6.53;;;3.38;;
37657;SDS011;23500;53.268;8.308;2022-08-01T06:45:08;7.20;;;3.50;;
37657;SDS011;23500;53.268;8.308;2022-08-01T06:47:35;5.50;;;2.67;;
37657;SDS011;23500;53.268;8.308;2022-08-01T06:50:01;6.45;;;3.10;;
37657;SDS011;23500;53.268;8.308;2022-08-01T06:52:27;6.50;;;3.13;;
37657;SDS011;23500;53.268;8.308;2022-08-01T06:54:53;5.28;;;2.95;;
37657;SDS011;23500;53.268;8.308;2022-08-01T06:57:19;5.30;;;3.22;;
37657;SDS011;23500;53.268;8.308;2022-08-01T06:59:44;5.43;;;3.03;;
37657;SDS011;23500;53.268;8.308;2022-08-01T07:02:10;6.50;;;3.20;;
37657;SDS011;23500;53.268;8.308;2022-08-01T07:04:36;6.43;;;3.38;;
37657;SDS011;23500;53.268;8.308;2022-08-01T07:07:01;4.90;;;2.85;;
37657;SDS011;23500;53.268;8.308;2022-08-01T07:09:29;6.68;;;3.28;;
37657;SDS011;23500;53.268;8.308;2022-08-01T07:11:54;6.68;;;3.17;;
37657;SDS011;23500;53.268;8.308;2022-08-01T07:14:22;6.50;;;3.30;;
37657;SDS011;23500;53.268;8.308;2022-08-01T07:16:48;6.72;;;3.30;;
37657;SDS011;23500;53.268;8.308;2022-08-01T07:19:15;5.72;;;3.10;;
37657;SDS011;23500;53.268;8.308;2022-08-01T07:21:41;7.70;;;3.50;;
37657;SDS011;23500;53.268;8.308;2022-08-01T07:24:07;5.45;;;3.00;;
37657;SDS011;23500;53.268;8.308;2022-08-01T07:26:34;5.72;;;3.17;;
37657;SDS011;23500;53.268;8.308;2022-08-01T07:28:59;6.88;;;3.53;;
37657;SDS011;23500;53.268;8.308;2022-08-01T07:31:25;6.10;;;3.17;;
37657;SDS011;23500;53.268;8.308;2022-08-01T07:33:51;6.45;;;3.30;;
37657;SDS011;23500;53.268;8.308;2022-08-01T07:36:17;5.75;;;3.13;;
37657;SDS011;23500;53.268;8.308;2022-08-01T07:38:43;4.75;;;3.05;;
37657;SDS011;23500;53.268;8.308;2022-08-01T07:41:09;7.22;;;3.38;;
37657;SDS011;23500;53.268;8.308;2022-08-01T07:43:35;5.45;;;3.17;;
37657;SDS011;23500;53.268;8.308;2022-08-01T07:46:01;5.10;;;3.20;;
37657;SDS011;23500;53.268;8.308;2022-08-01T07:48:30;6.00;;;3.15;;
37657;SDS011;23500;53.268;8.308;2022-08-01T07:50:56;6.13;;;3.20;;
37657;SDS011;23500;53.268;8.308;2022-08-01T07:53:22;5.57;;;3.25;;
37657;SDS011;23500;53.268;8.308;2022-08-01T07:55:48;5.90;;;2.88;;
37657;SDS011;23500;53.268;8.308;2022-08-01T07:58:14;5.18;;;3.30;;
37657;SDS011;23500;53.268;8.308;2022-08-01T08:00:40;5.63;;;3.10;;
37657;SDS011;23500;53.268;8.308;2022-08-01T08:03:05;5.85;;;3.00;;
37657;SDS011;23500;53.268;8.308;2022-08-01T08:05:31;7.43;;;4.00;;
37657;SDS011;23500;53.268;8.308;2022-08-01T08:08:00;7.25;;;3.30;;
37657;SDS011;23500;53.268;8.308;2022-08-01T08:10:26;5.32;;;3.13;;
37657;SDS011;23500;53.268;8.308;2022-08-01T08:12:52;7.80;;;3.40;;
37657;SDS011;23500;53.268;8.308;2022-08-01T08:15:17;4.55;;;3.20;;
37657;SDS011;23500;53.268;8.308;2022-08-01T08:17:43;4.47;;;2.92;;
37657;SDS011;23500;53.268;8.308;2022-08-01T08:20:09;5.35;;;3.08;;
37657;SDS011;23500;53.268;8.308;2022-08-01T08:22:35;5.47;;;3.10;;
37657;SDS011;23500;53.268;8.308;2022-08-01T08:25:01;5.05;;;2.92;;
37657;SDS011;23500;53.268;8.308;2022-08-01T08:27:27;7.00;;;3.33;;
37657;SDS011;23500;53.268;8.308;2022-08-01T08:29:52;4.97;;;3.22;;
37657;SDS011;23500;53.268;8.308;2022-08-01T08:32:18;5.63;;;3.03;;
37657;SDS011;23500;53.268;8.308;2022-08-01T08:34:44;5.90;;;3.30;;
37657;SDS011;23500;53.268;8.308;2022-08-01T08:37:09;4.47;;;2.83;;
37657;SDS011;23500;53.268;8.308;2022-08-01T08:39:36;6.63;;;3.38;;
37657;SDS011;23500;53.268;8.308;2022-08-01T08:42:04;6.00;;;3.10;;
37657;SDS011;23500;53.268;8.308;2022-08-01T08:44:32;7.10;;;3.38;;
37657;SDS011;23500;53.268;8.308;2022-08-01T08:46:58;3.95;;;2.70;;
37657;SDS011;23500;53.268;8.308;2022-08-01T08:49:30;6.20;;;3.42;;
37657;SDS011;23500;53.268;8.308;2022-08-01T08:51:58;7.07;;;3.35;;
37657;SDS011;23500;53.268;8.308;2022-08-01T08:54:25;6.07;;;3.30;;
37657;SDS011;23500;53.268;8.308;2022-08-01T08:56:53;6.57;;;3.17;;
37657;SDS011;23500;53.268;8.308;2022-08-01T08:59:19;5.25;;;3.10;;
37657;SDS011;23500;53.268;8.308;2022-08-01T09:01:46;5.57;;;3.15;;
37657;SDS011;23500;53.268;8.308;2022-08-01T09:04:12;5.28;;;3.50;;
37657;SDS011;23500;53.268;8.308;2022-08-01T09:06:38;5.05;;;3.20;;
37657;SDS011;23500;53.268;8.308;2022-08-01T09:09:05;5.50;;;3.13;;
37657;SDS011;23500;53.268;8.308;2022-08-01T09:11:32;4.53;;;3.03;;
37657;SDS011;23500;53.268;8.308;2022-08-01T09:14:19;5.47;;;3.20;;
37657;SDS011;23500;53.268;8.308;2022-08-01T09:17:05;5.05;;;3.08;;
37657;SDS011;23500;53.268;8.308;2022-08-01T09:22:04;5.90;;;2.75;;
37657;SDS011;23500;53.268;8.308;2022-08-01T09:24:32;5.95;;;2.75;;
37657;SDS011;23500;53.268;8.308;2022-08-01T09:26:59;4.38;;;2.60;;
37657;SDS011;23500;53.268;8.308;2022-08-01T09:29:27;7.05;;;3.25;;
37657;SDS011;23500;53.268;8.308;2022-08-01T09:31:59;4.57;;;2.80;;
37657;SDS011;23500;53.268;8.308;2022-08-01T09:34:30;5.28;;;2.88;;
37657;SDS011;23500;53.268;8.308;2022-08-01T09:36:58;5.72;;;2.70;;
37657;SDS011;23500;53.268;8.308;2022-08-01T09:39:26;3.97;;;2.63;;
37657;SDS011;23500;53.268;8.308;2022-08-01T09:41:57;4.88;;;3.00;;
37657;SDS011;23500;53.268;8.308;2022-08-01T09:44:38;5.18;;;2.97;;
37657;SDS011;23500;53.268;8.308;2022-08-01T09:47:06;5.30;;;2.63;;
37657;SDS011;23500;53.268;8.308;2022-08-01T09:49:32;5.95;;;2.95;;
37657;SDS011;23500;53.268;8.308;2022-08-01T09:52:09;5.15;;;2.90;;
37657;SDS011;23500;53.268;8.308;2022-08-01T09:54:35;5.13;;;2.80;;
37657;SDS011;23500;53.268;8.308;2022-08-01T09:57:08;4.80;;;3.20;;
37657;SDS011;23500;53.268;8.308;2022-08-01T09:59:35;4.60;;;2.90;;
37657;SDS011;23500;53.268;8.308;2022-08-01T10:02:03;4.90;;;3.17;;
37657;SDS011;23500;53.268;8.308;2022-08-01T10:04:28;6.03;;;3.10;;
37657;SDS011;23500;53.268;8.308;2022-08-01T10:07:02;4.57;;;2.92;;
37657;SDS011;23500;53.268;8.308;2022-08-01T10:09:31;6.05;;;3.28;;
37657;SDS011;23500;53.268;8.308;2022-08-01T10:12:01;6.30;;;3.13;;
37657;SDS011;23500;53.268;8.308;2022-08-01T10:14:27;6.13;;;3.13;;
37657;SDS011;23500;53.268;8.308;2022-08-01T10:16:55;5.15;;;2.92;;
37657;SDS011;23500;53.268;8.308;2022-08-01T10:19:23;5.72;;;2.90;;
37657;SDS011;23500;53.268;8.308;2022-08-01T10:21:51;4.72;;;3.00;;
37657;SDS011;23500;53.268;8.308;2022-08-01T10:24:22;5.78;;;3.20;;
37657;SDS011;23500;53.268;8.308;2022-08-01T10:26:51;4.28;;;2.80;;
37657;SDS011;23500;53.268;8.308;2022-08-01T10:29:20;5.57;;;3.17;;
37657;SDS011;23500;53.268;8.308;2022-08-01T10:31:47;5.68;;;3.05;;
37657;SDS011;23500;53.268;8.308;2022-08-01T10:34:14;4.10;;;2.67;;
37657;SDS011;23500;53.268;8.308;2022-08-01T10:36:44;5.30;;;2.90;;
37657;SDS011;23500;53.268;8.308;2022-08-01T10:39:10;4.70;;;2.83;;
37657;SDS011;23500;53.268;8.308;2022-08-01T10:41:40;5.55;;;2.97;;
37657;SDS011;23500;53.268;8.308;2022-08-01T10:44:07;5.25;;;2.80;;
37657;SDS011;23500;53.268;8.308;2022-08-01T10:46:34;5.30;;;3.15;;
37657;SDS011;23500;53.268;8.308;2022-08-01T10:49:13;5.82;;;3.10;;
37657;SDS011;23500;53.268;8.308;2022-08-01T10:51:41;6.15;;;3.13;;
37657;SDS011;23500;53.268;8.308;2022-08-01T10:54:09;6.50;;;3.10;;
37657;SDS011;23500;53.268;8.308;2022-08-01T10:56:40;6.82;;;3.10;;
37657;SDS011;23500;53.268;8.308;2022-08-01T10:59:25;4.93;;;2.67;;
37657;SDS011;23500;53.268;8.308;2022-08-01T11:02:00;4.50;;;2.60;;
37657;SDS011;23500;53.268;8.308;2022-08-01T11:07:17;4.50;;;2.63;;
37657;SDS011;23500;53.268;8.308;2022-08-01T11:09:47;4.70;;;3.00;;
37657;SDS011;23500;53.268;8.308;2022-08-01T11:12:24;6.00;;;2.75;;
37657;SDS011;23500;53.268;8.308;2022-08-01T11:17:35;5.63;;;2.88;;
37657;SDS011;23500;53.268;8.308;2022-08-01T11:20:13;5.00;;;2.80;;
37657;SDS011;23500;53.268;8.308;2022-08-01T11:30:39;3.85;;;2.42;;
37657;SDS011;23500;53.268;8.308;2022-08-01T11:33:06;4.70;;;2.63;;
37657;SDS011;23500;53.268;8.308;2022-08-01T11:35:35;5.38;;;2.83;;
37657;SDS011;23500;53.268;8.308;2022-08-01T11:41:10;4.93;;;2.85;;
37657;SDS011;23500;53.268;8.308;2022-08-01T11:44:10;4.47;;;2.45;;
37657;SDS011;23500;53.268;8.308;2022-08-01T11:46:49;4.32;;;2.72;;
37657;SDS011;23500;53.268;8.308;2022-08-01T11:49:31;4.85;;;2.58;;
37657;SDS011;23500;53.268;8.308;2022-08-01T11:52:26;5.63;;;2.63;;
37657;SDS011;23500;53.268;8.308;2022-08-01T11:54:57;3.97;;;2.47;;
37657;SDS011;23500;53.268;8.308;2022-08-01T11:57:31;4.45;;;2.97;;
37657;SDS011;23500;53.268;8.308;2022-08-01T12:00:00;4.30;;;2.60;;
37657;SDS011;23500;53.268;8.308;2022-08-01T12:02:35;3.67;;;2.45;;
37657;SDS011;23500;53.268;8.308;2022-08-01T12:07:35;4.00;;;2.40;;
37657;SDS011;23500;53.268;8.308;2022-08-01T12:12:34;4.63;;;2.88;;
37657;SDS011;23500;53.268;8.308;2022-08-01T12:15:06;4.68;;;2.63;;
37657;SDS011;23500;53.268;8.308;2022-08-01T12:17:42;4.53;;;2.97;;
37657;SDS011;23500;53.268;8.308;2022-08-01T12:20:10;3.90;;;2.33;;
37657;SDS011;23500;53.268;8.308;2022-08-01T12:22:37;4.88;;;2.60;;
37657;SDS011;23500;53.268;8.308;2022-08-01T12:25:13;3.53;;;2.22;;
37657;SDS011;23500;53.268;8.308;2022-08-01T12:27:41;3.55;;;2.50;;
37657;SDS011;23500;53.268;8.308;2022-08-01T12:30:09;3.90;;;2.40;;
37657;SDS011;23500;53.268;8.308;2022-08-01T12:32:37;5.15;;;2.72;;
37657;SDS011;23500;53.268;8.308;2022-08-01T12:37:41;3.03;;;2.10;;
37657;SDS011;23500;53.268;8.308;2022-08-01T12:42:48;5.35;;;2.60;;
37657;SDS011;23500;53.268;8.308;2022-08-01T12:45:16;4.25;;;2.45;;
37657;SDS011;23500;53.268;8.308;2022-08-01T12:47:44;3.47;;;2.50;;
37657;SDS011;23500;53.268;8.308;2022-08-01T12:50:12;3.88;;;2.53;;
37657;SDS011;23500;53.268;8.308;2022-08-01T12:52:41;4.68;;;2.55;;
37657;SDS011;23500;53.268;8.308;2022-08-01T12:57:38;4.10;;;2.30;;
37657;SDS011;23500;53.268;8.308;2022-08-01T13:00:23;3.83;;;2.58;;
37657;SDS011;23500;53.268;8.308;2022-08-01T13:03:04;3.50;;;2.17;;
37657;SDS011;23500;53.268;8.308;2022-08-01T13:05:50;3.28;;;2.15;;
37657;SDS011;23500;53.268;8.308;2022-08-01T13:08:18;3.28;;;2.20;;
37657;SDS011;23500;53.268;8.308;2022-08-01T13:10:50;3.17;;;2.22;;
37657;SDS011;23500;53.268;8.308;2022-08-01T13:13:42;4.13;;;2.60;;
37657;SDS011;23500;53.268;8.308;2022-08-01T13:16:09;4.10;;;2.17;;
37657;SDS011;23500;53.268;8.308;2022-08-01T13:18:36;3.97;;;2.53;;
37657;SDS011;23500;53.268;8.308;2022-08-01T13:21:09;4.35;;;2.20;;
37657;SDS011;23500;53.268;8.308;2022-08-01T13:23:36;5.03;;;2.58;;
37657;SDS011;23500;53.268;8.308;2022-08-01T13:26:03;4.93;;;2.47;;
37657;SDS011;23500;53.268;8.308;2022-08-01T13:28:29;3.83;;;2.45;;
37657;SDS011;23500;53.268;8.308;2022-08-01T13:31:00;3.95;;;2.42;;
37657;SDS011;23500;53.268;8.308;2022-08-01T13:33:38;3.75;;;2.42;;
37657;SDS011;23500;53.268;8.308;2022-08-01T13:36:06;3.38;;;2.33;;
37657;SDS011;23500;53.268;8.308;2022-08-01T13:38:32;3.45;;;2.33;;
37657;SDS011;23500;53.268;8.308;2022-08-01T13:41:17;2.55;;;2.20;;
37657;SDS011;23500;53.268;8.308;2022-08-01T13:43:42;4.45;;;2.30;;
37657;SDS011;23500;53.268;8.308;2022-08-01T13:46:08;4.13;;;2.30;;
37657;SDS011;23500;53.268;8.308;2022-08-01T13:48:34;3.78;;;2.15;;
37657;SDS011;23500;53.268;8.308;2022-08-01T13:50:59;5.30;;;2.30;;
37657;SDS011;23500;53.268;8.308;2022-08-01T13:53:25;3.35;;;2.15;;
37657;SDS011;23500;53.268;8.308;2022-08-01T13:55:52;4.13;;;2.30;;
37657;SDS011;23500;53.268;8.308;2022-08-01T13:58:17;3.58;;;1.98;;
37657;SDS011;23500;53.268;8.308;2022-08-01T14:00:43;4.80;;;2.20;;
37657;SDS011;23500;53.268;8.308;2022-08-01T14:03:09;3.30;;;2.35;;
37657;SDS011;23500;53.268;8.308;2022-08-01T14:05:35;2.45;;;2.20;;
37657;SDS011;23500;53.268;8.308;2022-08-01T14:08:01;3.88;;;2.38;;
37657;SDS011;23500;53.268;8.308;2022-08-01T14:10:27;3.53;;;2.30;;
37657;SDS011;23500;53.268;8.308;2022-08-01T14:12:54;3.33;;;2.00;;
37657;SDS011;23500;53.268;8.308;2022-08-01T14:15:20;3.15;;;2.03;;
37657;SDS011;23500;53.268;8.308;2022-08-01T14:17:46;3.33;;;2.13;;
37657;SDS011;23500;53.268;8.308;2022-08-01T14:20:11;2.70;;;1.88;;
37657;SDS011;23500;53.268;8.308;2022-08-01T14:22:37;3.88;;;2.30;;
37657;SDS011;23500;53.268;8.308;2022-08-01T14:25:04;3.15;;;2.30;;
37657;SDS011;23500;53.268;8.308;2022-08-01T14:27:30;2.75;;;2.00;;
37657;SDS011;23500;53.268;8.308;2022-08-01T14:29:56;3.03;;;1.85;;
37657;SDS011;23500;53.268;8.308;2022-08-01T14:32:22;3.08;;;2.00;;
37657;SDS011;23500;53.268;8.308;2022-08-01T14:34:47;4.65;;;2.30;;
37657;SDS011;23500;53.268;8.308;2022-08-01T14:37:13;2.92;;;2.00;;
37657;SDS011;23500;53.268;8.308;2022-08-01T14:39:39;3.05;;;2.17;;
37657;SDS011;23500;53.268;8.308;2022-08-01T14:42:04;4.80;;;2.30;;
37657;SDS011;23500;53.268;8.308;2022-08-01T14:44:30;3.90;;;2.05;;
37657;SDS011;23500;53.268;8.308;2022-08-01T14:46:56;3.08;;;2.03;;
37657;SDS011;23500;53.268;8.308;2022-08-01T14:49:21;3.40;;;2.10;;
37657;SDS011;23500;53.268;8.308;2022-08-01T14:51:47;3.20;;;2.25;;
37657;SDS011;23500;53.268;8.308;2022-08-01T14:54:12;4.55;;;2.40;;
37657;SDS011;23500;53.268;8.308;2022-08-01T14:56:38;3.13;;;2.50;;
37657;SDS011;23500;53.268;8.308;2022-08-01T14:59:04;3.72;;;2.08;;
37657;SDS011;23500;53.268;8.308;2022-08-01T15:01:29;3.20;;;1.83;;
37657;SDS011;23500;53.268;8.308;2022-08-01T15:03:55;2.22;;;1.85;;
37657;SDS011;23500;53.268;8.308;2022-08-01T15:06:21;2.50;;;1.80;;
37657;SDS011;23500;53.268;8.308;2022-08-01T15:08:47;2.67;;;1.92;;
37657;SDS011;23500;53.268;8.308;2022-08-01T15:11:12;3.17;;;2.20;;
37657;SDS011;23500;53.268;8.308;2022-08-01T15:13:38;2.95;;;1.80;;
37657;SDS011;23500;53.268;8.308;2022-08-01T15:16:04;3.10;;;2.17;;
37657;SDS011;23500;53.268;8.308;2022-08-01T15:18:29;2.80;;;1.90;;
37657;SDS011;23500;53.268;8.308;2022-08-01T15:20:55;3.25;;;2.00;;
37657;SDS011;23500;53.268;8.308;2022-08-01T15:23:22;3.88;;;2.05;;
37657;SDS011;23500;53.268;8.308;2022-08-01T15:25:48;3.72;;;2.10;;
37657;SDS011;23500;53.268;8.308;2022-08-01T15:28:14;3.15;;;2.15;;
37657;SDS011;23500;53.268;8.308;2022-08-01T15:30:40;3.17;;;2.20;;
37657;SDS011;23500;53.268;8.308;2022-08-01T15:33:06;2.92;;;2.17;;
37657;SDS011;23500;53.268;8.308;2022-08-01T15:35:31;2.85;;;2.25;;